sensor_id;sensor_type;location;lat;lon;timestamp;pressure;altitude;pressure_sealevel;temperature;humidity
41078;BME280;26823;42.662;23.352;2023-07-24T00:01:52;95046.31;;;21.90;64.01
41078;BME280;26823;42.662;23.352;2023-07-24T00:04:17;95040.00;;;21.89;64.12
41078;BME280;26823;42.662;23.352;2023-07-24T00:06:42;95042.06;;;21.92;63.84
41078;BME280;26823;42.662;23.352;2023-07-24T00:09:08;95041.63;;;21.90;64.00
41078;BME280;26823;42.662;23.352;2023-07-24T00:11:33;95037.63;;;21.88;63.80
41078;BME280;26823;42.662;23.352;2023-07-24T00:13:58;95047.56;;;21.92;64.10
41078;BME280;26823;42.662;23.352;2023-07-24T00:16:24;95038.28;;;21.85;64.09
41078;BME280;26823;42.662;23.352;2023-07-24T00:18:49;95040.03;;;21.77;64.14
41078;BME280;26823;42.662;23.352;2023-07-24T00:21:15;95030.63;;;21.78;64.67
41078;BME280;26823;42.662;23.352;2023-07-24T00:23:40;95030.72;;;21.81;64.95
41078;BME280;26823;42.662;23.352;2023-07-24T00:26:06;95039.91;;;21.86;64.90
41078;BME280;26823;42.662;23.352;2023-07-24T00:28:32;95042.88;;;21.80;64.76
41078;BME280;26823;42.662;23.352;2023-07-24T00:30:58;95026.84;;;21.70;65.21
41078;BME280;26823;42.662;23.352;2023-07-24T00:33:23;95037.38;;;21.68;66.23
41078;BME280;26823;42.662;23.352;2023-07-24T00:35:48;95031.53;;;21.70;65.73
41078;BME280;26823;42.662;23.352;2023-07-24T00:38:14;95028.78;;;21.70;66.07
41078;BME280;26823;42.662;23.352;2023-07-24T00:40:39;95041.75;;;21.69;66.00
41078;BME280;26823;42.662;23.352;2023-07-24T00:43:04;95033.13;;;21.71;66.10
41078;BME280;26823;42.662;23.352;2023-07-24T00:45:30;95033.13;;;21.71;66.06
41078;BME280;26823;42.662;23.352;2023-07-24T00:47:55;95025.34;;;21.60;66.49
41078;BME280;26823;42.662;23.352;2023-07-24T00:50:21;95036.13;;;21.65;65.74
41078;BME280;26823;42.662;23.352;2023-07-24T00:52:47;95030.72;;;21.57;66.19
41078;BME280;26823;42.662;23.352;2023-07-24T00:55:13;95037.06;;;21.57;65.98
41078;BME280;26823;42.662;23.352;2023-07-24T00:57:39;95036.59;;;21.55;66.21
41078;BME280;26823;42.662;23.352;2023-07-24T01:00:06;95028.06;;;21.48;66.27
41078;BME280;26823;42.662;23.352;2023-07-24T01:02:31;95030.81;;;21.48;66.11
41078;BME280;26823;42.662;23.352;2023-07-24T01:04:57;95026.22;;;21.52;66.75
41078;BME280;26823;42.662;23.352;2023-07-24T01:07:23;95027.38;;;21.51;67.00
41078;BME280;26823;42.662;23.352;2023-07-24T01:09:48;95030.03;;;21.47;66.92
41078;BME280;26823;42.662;23.352;2023-07-24T01:14:49;95026.47;;;21.34;66.06
41078;BME280;26823;42.662;23.352;2023-07-24T01:17:20;95037.69;;;21.29;65.92
41078;BME280;26823;42.662;23.352;2023-07-24T01:19:55;95000.03;;;20.96;65.92
41078;BME280;26823;42.662;23.352;2023-07-24T01:27:26;94995.09;;;20.90;67.83
41078;BME280;26823;42.662;23.352;2023-07-24T01:29:52;95019.63;;;20.95;67.98
41078;BME280;26823;42.662;23.352;2023-07-24T01:32:18;95018.44;;;20.83;68.06
41078;BME280;26823;42.662;23.352;2023-07-24T01:34:45;95011.69;;;20.81;67.93
41078;BME280;26823;42.662;23.352;2023-07-24T01:37:12;95022.69;;;20.81;67.36
41078;BME280;26823;42.662;23.352;2023-07-24T01:39:40;94998.03;;;20.72;67.71
41078;BME280;26823;42.662;23.352;2023-07-24T01:42:06;95001.78;;;20.67;67.77
41078;BME280;26823;42.662;23.352;2023-07-24T01:44:31;95016.66;;;20.66;68.04
41078;BME280;26823;42.662;23.352;2023-07-24T01:46:57;95010.97;;;20.72;67.72
41078;BME280;26823;42.662;23.352;2023-07-24T01:49:22;95041.47;;;20.79;67.89
41078;BME280;26823;42.662;23.352;2023-07-24T01:51:47;95009.50;;;20.53;67.83
41078;BME280;26823;42.662;23.352;2023-07-24T01:54:13;95039.50;;;20.79;68.28
41078;BME280;26823;42.662;23.352;2023-07-24T01:56:39;95023.03;;;20.79;68.28
41078;BME280;26823;42.662;23.352;2023-07-24T01:59:05;95031.59;;;20.78;67.99
41078;BME280;26823;42.662;23.352;2023-07-24T02:01:31;95024.22;;;20.69;68.69
41078;BME280;26823;42.662;23.352;2023-07-24T02:03:56;95037.16;;;20.69;68.81
41078;BME280;26823;42.662;23.352;2023-07-24T02:06:21;95028.25;;;20.72;69.20
41078;BME280;26823;42.662;23.352;2023-07-24T02:08:47;95026.69;;;20.71;69.30
41078;BME280;26823;42.662;23.352;2023-07-24T02:11:14;95032.75;;;20.77;68.96
41078;BME280;26823;42.662;23.352;2023-07-24T02:13:40;95015.97;;;20.69;69.00
41078;BME280;26823;42.662;23.352;2023-07-24T02:16:06;95018.28;;;20.67;69.20
41078;BME280;26823;42.662;23.352;2023-07-24T02:18:31;95014.34;;;20.56;67.03
41078;BME280;26823;42.662;23.352;2023-07-24T02:20:56;95024.63;;;20.59;68.57
41078;BME280;26823;42.662;23.352;2023-07-24T02:23:22;95026.25;;;20.60;67.14
41078;BME280;26823;42.662;23.352;2023-07-24T02:25:51;95014.13;;;20.61;67.80
41078;BME280;26823;42.662;23.352;2023-07-24T02:28:17;95019.47;;;20.58;68.87
41078;BME280;26823;42.662;23.352;2023-07-24T02:30:42;95009.75;;;20.60;68.13
41078;BME280;26823;42.662;23.352;2023-07-24T02:33:07;95021.84;;;20.47;65.13
41078;BME280;26823;42.662;23.352;2023-07-24T02:35:38;95013.50;;;20.43;64.52
41078;BME280;26823;42.662;23.352;2023-07-24T02:38:05;95012.19;;;20.41;65.89
41078;BME280;26823;42.662;23.352;2023-07-24T02:40:30;95003.94;;;20.41;68.16
41078;BME280;26823;42.662;23.352;2023-07-24T02:42:55;95003.63;;;20.42;67.84
41078;BME280;26823;42.662;23.352;2023-07-24T02:45:21;95013.16;;;20.45;67.41
41078;BME280;26823;42.662;23.352;2023-07-24T02:47:46;95019.44;;;20.45;67.33
41078;BME280;26823;42.662;23.352;2023-07-24T02:50:11;95021.31;;;20.53;67.32
41078;BME280;26823;42.662;23.352;2023-07-24T02:52:37;95020.81;;;20.51;66.91
41078;BME280;26823;42.662;23.352;2023-07-24T02:55:02;95013.28;;;20.48;66.79
41078;BME280;26823;42.662;23.352;2023-07-24T02:57:28;95022.66;;;20.47;67.31
41078;BME280;26823;42.662;23.352;2023-07-24T02:59:53;95016.09;;;20.40;67.35
41078;BME280;26823;42.662;23.352;2023-07-24T03:02:18;95011.75;;;20.39;67.43
41078;BME280;26823;42.662;23.352;2023-07-24T03:04:44;95017.03;;;20.44;67.65
41078;BME280;26823;42.662;23.352;2023-07-24T03:07:09;95004.63;;;20.37;67.10
41078;BME280;26823;42.662;23.352;2023-07-24T03:09:34;94985.22;;;20.21;67.08
41078;BME280;26823;42.662;23.352;2023-07-24T03:12:00;95013.66;;;20.38;66.95
41078;BME280;26823;42.662;23.352;2023-07-24T03:14:25;95011.25;;;20.36;66.72
41078;BME280;26823;42.662;23.352;2023-07-24T03:16:51;95002.88;;;20.33;66.54
41078;BME280;26823;42.662;23.352;2023-07-24T03:19:16;95007.94;;;20.31;65.84
41078;BME280;26823;42.662;23.352;2023-07-24T03:21:42;95009.53;;;20.32;65.74
41078;BME280;26823;42.662;23.352;2023-07-24T03:24:08;95001.97;;;20.29;66.29
41078;BME280;26823;42.662;23.352;2023-07-24T03:26:33;95014.94;;;20.41;65.90
41078;BME280;26823;42.662;23.352;2023-07-24T03:29:00;95011.88;;;20.42;65.96
41078;BME280;26823;42.662;23.352;2023-07-24T03:31:25;95024.34;;;20.40;66.54
41078;BME280;26823;42.662;23.352;2023-07-24T03:33:50;95007.31;;;20.25;67.38
41078;BME280;26823;42.662;23.352;2023-07-24T03:36:16;95013.56;;;20.34;66.89
41078;BME280;26823;42.662;23.352;2023-07-24T03:38:41;95007.94;;;20.31;67.26
41078;BME280;26823;42.662;23.352;2023-07-24T03:41:07;95024.78;;;20.42;66.54
41078;BME280;26823;42.662;23.352;2023-07-24T03:43:32;95014.00;;;20.36;66.99
41078;BME280;26823;42.662;23.352;2023-07-24T03:45:57;95017.38;;;20.42;66.72
41078;BME280;26823;42.662;23.352;2023-07-24T03:48:23;95013.88;;;20.33;62.55
41078;BME280;26823;42.662;23.352;2023-07-24T03:50:50;95022.25;;;20.36;64.34
41078;BME280;26823;42.662;23.352;2023-07-24T03:53:16;95022.78;;;20.30;63.16
41078;BME280;26823;42.662;23.352;2023-07-24T03:55:41;95028.75;;;20.11;63.28
41078;BME280;26823;42.662;23.352;2023-07-24T03:58:06;95020.97;;;19.62;65.13
41078;BME280;26823;42.662;23.352;2023-07-24T04:00:32;95036.03;;;19.47;66.12
41078;BME280;26823;42.662;23.352;2023-07-24T04:02:57;95026.50;;;19.53;65.65
41078;BME280;26823;42.662;23.352;2023-07-24T04:05:23;95026.72;;;19.39;66.05
41078;BME280;26823;42.662;23.352;2023-07-24T04:07:48;95022.84;;;19.40;66.25
41078;BME280;26823;42.662;23.352;2023-07-24T04:10:14;95022.66;;;19.45;66.68
41078;BME280;26823;42.662;23.352;2023-07-24T04:12:39;95030.69;;;19.20;66.95
41078;BME280;26823;42.662;23.352;2023-07-24T04:15:05;95039.16;;;19.36;67.33
41078;BME280;26823;42.662;23.352;2023-07-24T04:17:30;95040.53;;;19.51;66.82
41078;BME280;26823;42.662;23.352;2023-07-24T04:19:57;95043.53;;;19.67;67.16
41078;BME280;26823;42.662;23.352;2023-07-24T04:22:22;95052.50;;;19.85;66.86
41078;BME280;26823;42.662;23.352;2023-07-24T04:24:48;95039.84;;;19.93;66.48
41078;BME280;26823;42.662;23.352;2023-07-24T04:27:13;95038.81;;;20.07;65.80
41078;BME280;26823;42.662;23.352;2023-07-24T04:29:38;95026.13;;;19.93;65.91
41078;BME280;26823;42.662;23.352;2023-07-24T04:32:04;95036.06;;;20.07;66.68
41078;BME280;26823;42.662;23.352;2023-07-24T04:34:29;95042.28;;;20.16;66.55
41078;BME280;26823;42.662;23.352;2023-07-24T04:36:55;95043.34;;;20.24;66.73
41078;BME280;26823;42.662;23.352;2023-07-24T04:39:20;95032.34;;;20.02;66.96
41078;BME280;26823;42.662;23.352;2023-07-24T04:41:45;95037.53;;;20.04;67.06
41078;BME280;26823;42.662;23.352;2023-07-24T04:44:11;95042.50;;;20.11;67.32
41078;BME280;26823;42.662;23.352;2023-07-24T04:46:36;95030.56;;;20.07;67.78
41078;BME280;26823;42.662;23.352;2023-07-24T04:49:01;95032.25;;;19.99;67.29
41078;BME280;26823;42.662;23.352;2023-07-24T04:51:27;95047.63;;;20.12;66.98
41078;BME280;26823;42.662;23.352;2023-07-24T04:53:53;95046.78;;;20.20;66.44
41078;BME280;26823;42.662;23.352;2023-07-24T04:56:18;95052.47;;;20.36;65.70
41078;BME280;26823;42.662;23.352;2023-07-24T04:58:44;95043.50;;;20.48;65.42
41078;BME280;26823;42.662;23.352;2023-07-24T05:01:16;95029.63;;;20.45;65.32
41078;BME280;26823;42.662;23.352;2023-07-24T05:03:41;95044.88;;;20.54;65.96
41078;BME280;26823;42.662;23.352;2023-07-24T05:06:06;95048.09;;;20.78;65.47
41078;BME280;26823;42.662;23.352;2023-07-24T05:08:32;95052.13;;;20.80;65.83
41078;BME280;26823;42.662;23.352;2023-07-24T05:10:57;95048.09;;;20.78;66.36
41078;BME280;26823;42.662;23.352;2023-07-24T05:13:24;95042.44;;;20.95;66.47
41078;BME280;26823;42.662;23.352;2023-07-24T05:15:49;95044.53;;;21.11;65.13
41078;BME280;26823;42.662;23.352;2023-07-24T05:18:14;95043.59;;;21.19;64.60
41078;BME280;26823;42.662;23.352;2023-07-24T05:20:48;95041.91;;;21.27;65.08
41078;BME280;26823;42.662;23.352;2023-07-24T05:23:14;95043.50;;;21.28;64.20
41078;BME280;26823;42.662;23.352;2023-07-24T05:25:40;95047.78;;;21.38;62.60
41078;BME280;26823;42.662;23.352;2023-07-24T05:28:05;95041.81;;;21.48;63.63
41078;BME280;26823;42.662;23.352;2023-07-24T05:30:30;95051.59;;;21.58;62.75
41078;BME280;26823;42.662;23.352;2023-07-24T05:32:56;95039.09;;;21.60;62.79
41078;BME280;26823;42.662;23.352;2023-07-24T05:35:21;95044.25;;;21.74;62.75
41078;BME280;26823;42.662;23.352;2023-07-24T05:37:47;95016.16;;;21.69;62.52
41078;BME280;26823;42.662;23.352;2023-07-24T05:40:12;95051.47;;;21.91;63.01
41078;BME280;26823;42.662;23.352;2023-07-24T05:42:38;95041.34;;;22.08;62.29
41078;BME280;26823;42.662;23.352;2023-07-24T05:45:07;95037.47;;;21.96;61.43
41078;BME280;26823;42.662;23.352;2023-07-24T05:47:33;95036.31;;;21.97;61.83
41078;BME280;26823;42.662;23.352;2023-07-24T05:49:58;95020.84;;;21.93;61.72
41078;BME280;26823;42.662;23.352;2023-07-24T05:52:24;95022.78;;;21.80;62.08
41078;BME280;26823;42.662;23.352;2023-07-24T05:54:49;95029.47;;;21.79;61.67
41078;BME280;26823;42.662;23.352;2023-07-24T05:57:14;95024.53;;;21.85;62.34
41078;BME280;26823;42.662;23.352;2023-07-24T05:59:40;95007.88;;;21.93;62.73
41078;BME280;26823;42.662;23.352;2023-07-24T06:02:05;95023.78;;;22.12;62.82
41078;BME280;26823;42.662;23.352;2023-07-24T06:04:31;95021.31;;;22.36;62.05
41078;BME280;26823;42.662;23.352;2023-07-24T06:06:56;95018.13;;;22.46;61.67
41078;BME280;26823;42.662;23.352;2023-07-24T06:09:22;95003.53;;;22.45;61.01
41078;BME280;26823;42.662;23.352;2023-07-24T06:11:47;95014.50;;;22.58;60.79
41078;BME280;26823;42.662;23.352;2023-07-24T06:14:12;95017.66;;;22.72;60.79
41078;BME280;26823;42.662;23.352;2023-07-24T06:16:38;95009.28;;;22.69;59.90
41078;BME280;26823;42.662;23.352;2023-07-24T06:19:03;95016.38;;;22.70;59.77
41078;BME280;26823;42.662;23.352;2023-07-24T06:21:28;95018.41;;;22.85;59.32
41078;BME280;26823;42.662;23.352;2023-07-24T06:23:54;95014.66;;;22.93;59.31
41078;BME280;26823;42.662;23.352;2023-07-24T06:26:19;95016.19;;;22.91;59.75
41078;BME280;26823;42.662;23.352;2023-07-24T06:28:44;95020.28;;;22.97;59.99
41078;BME280;26823;42.662;23.352;2023-07-24T06:31:10;95011.50;;;23.07;59.25
41078;BME280;26823;42.662;23.352;2023-07-24T06:33:35;95016.25;;;23.23;58.50
41078;BME280;26823;42.662;23.352;2023-07-24T06:36:00;95015.19;;;23.27;58.93
41078;BME280;26823;42.662;23.352;2023-07-24T06:38:33;95019.19;;;23.30;59.18
41078;BME280;26823;42.662;23.352;2023-07-24T06:40:59;95021.78;;;23.39;59.06
41078;BME280;26823;42.662;23.352;2023-07-24T06:43:24;95013.69;;;23.46;58.67
41078;BME280;26823;42.662;23.352;2023-07-24T06:45:49;95014.81;;;23.61;58.38
41078;BME280;26823;42.662;23.352;2023-07-24T06:48:15;95008.69;;;23.68;58.30
41078;BME280;26823;42.662;23.352;2023-07-24T06:50:40;95012.81;;;23.77;57.15
41078;BME280;26823;42.662;23.352;2023-07-24T06:53:05;95011.53;;;23.71;58.16
41078;BME280;26823;42.662;23.352;2023-07-24T06:55:31;95019.72;;;23.68;57.56
41078;BME280;26823;42.662;23.352;2023-07-24T06:57:56;95019.72;;;23.68;57.90
41078;BME280;26823;42.662;23.352;2023-07-24T07:00:22;95025.47;;;23.78;58.49
41078;BME280;26823;42.662;23.352;2023-07-24T07:02:48;95022.28;;;23.92;57.38
41078;BME280;26823;42.662;23.352;2023-07-24T07:05:13;95029.72;;;24.08;56.39
41078;BME280;26823;42.662;23.352;2023-07-24T07:07:38;95026.53;;;24.06;56.64
41078;BME280;26823;42.662;23.352;2023-07-24T07:10:04;95032.72;;;23.99;56.39
41078;BME280;26823;42.662;23.352;2023-07-24T07:12:30;95025.72;;;24.05;56.48
41078;BME280;26823;42.662;23.352;2023-07-24T07:14:55;95025.69;;;24.21;56.16
41078;BME280;26823;42.662;23.352;2023-07-24T07:17:21;95016.41;;;24.30;54.98
41078;BME280;26823;42.662;23.352;2023-07-24T07:19:46;95015.91;;;24.43;54.89
41078;BME280;26823;42.662;23.352;2023-07-24T07:22:11;95012.63;;;24.57;54.50
41078;BME280;26823;42.662;23.352;2023-07-24T07:24:37;95010.72;;;24.62;55.25
41078;BME280;26823;42.662;23.352;2023-07-24T07:27:02;95006.88;;;24.66;53.71
41078;BME280;26823;42.662;23.352;2023-07-24T07:29:28;95005.72;;;24.67;53.21
41078;BME280;26823;42.662;23.352;2023-07-24T07:31:54;95006.00;;;24.62;53.17
41078;BME280;26823;42.662;23.352;2023-07-24T07:34:19;95002.72;;;24.56;54.30
41078;BME280;26823;42.662;23.352;2023-07-24T07:36:45;95001.34;;;24.66;53.87
41078;BME280;26823;42.662;23.352;2023-07-24T07:39:10;95001.56;;;24.77;54.49
41078;BME280;26823;42.662;23.352;2023-07-24T07:41:35;94997.78;;;24.85;53.61
41078;BME280;26823;42.662;23.352;2023-07-24T07:44:01;94997.97;;;24.96;52.42
41078;BME280;26823;42.662;23.352;2023-07-24T07:46:26;94996.50;;;25.02;52.34
41078;BME280;26823;42.662;23.352;2023-07-24T07:48:51;95004.03;;;25.02;52.00
41078;BME280;26823;42.662;23.352;2023-07-24T07:51:17;94985.06;;;25.04;52.44
41078;BME280;26823;42.662;23.352;2023-07-24T07:53:42;95010.66;;;25.20;52.29
41078;BME280;26823;42.662;23.352;2023-07-24T07:56:07;94994.97;;;25.28;51.49
41078;BME280;26823;42.662;23.352;2023-07-24T07:58:33;94994.56;;;25.49;51.93
41078;BME280;26823;42.662;23.352;2023-07-24T08:01:03;94999.53;;;25.63;52.16
41078;BME280;26823;42.662;23.352;2023-07-24T08:03:29;95006.13;;;25.78;51.48
41078;BME280;26823;42.662;23.352;2023-07-24T08:05:57;94993.94;;;25.86;49.59
41078;BME280;26823;42.662;23.352;2023-07-24T08:08:23;94991.63;;;25.88;49.48
41078;BME280;26823;42.662;23.352;2023-07-24T08:10:48;95000.78;;;25.93;50.44
41078;BME280;26823;42.662;23.352;2023-07-24T08:13:13;95004.50;;;26.04;49.50
41078;BME280;26823;42.662;23.352;2023-07-24T08:15:39;95000.25;;;26.10;48.97
41078;BME280;26823;42.662;23.352;2023-07-24T08:18:04;95002.00;;;26.22;49.93
41078;BME280;26823;42.662;23.352;2023-07-24T08:20:30;94987.56;;;26.09;49.67
41078;BME280;26823;42.662;23.352;2023-07-24T08:22:56;94967.78;;;26.07;49.27
41078;BME280;26823;42.662;23.352;2023-07-24T08:25:21;94946.78;;;26.06;49.23
41078;BME280;26823;42.662;23.352;2023-07-24T08:27:46;94983.81;;;26.55;49.40
41078;BME280;26823;42.662;23.352;2023-07-24T08:30:12;94976.97;;;26.76;48.60
41078;BME280;26823;42.662;23.352;2023-07-24T08:32:39;94982.16;;;26.81;47.80
41078;BME280;26823;42.662;23.352;2023-07-24T08:35:05;94974.84;;;26.99;48.19
41078;BME280;26823;42.662;23.352;2023-07-24T08:37:31;94948.50;;;26.82;46.39
41078;BME280;26823;42.662;23.352;2023-07-24T08:39:56;94973.53;;;26.90;44.44
41078;BME280;26823;42.662;23.352;2023-07-24T08:42:22;94951.13;;;26.72;45.30
41078;BME280;26823;42.662;23.352;2023-07-24T08:44:48;94969.34;;;27.07;45.03
41078;BME280;26823;42.662;23.352;2023-07-24T08:47:14;94969.84;;;27.19;44.71
41078;BME280;26823;42.662;23.352;2023-07-24T08:49:41;94948.88;;;27.26;44.76
41078;BME280;26823;42.662;23.352;2023-07-24T08:52:08;94961.84;;;27.52;44.92
41078;BME280;26823;42.662;23.352;2023-07-24T08:54:35;94966.72;;;27.70;44.73
41078;BME280;26823;42.662;23.352;2023-07-24T08:57:06;94966.84;;;27.88;43.81
41078;BME280;26823;42.662;23.352;2023-07-24T08:59:31;94968.59;;;28.10;42.48
41078;BME280;26823;42.662;23.352;2023-07-24T09:01:56;94957.56;;;28.21;42.11
41078;BME280;26823;42.662;23.352;2023-07-24T09:04:22;94959.59;;;28.35;42.19
41078;BME280;26823;42.662;23.352;2023-07-24T09:06:48;94961.22;;;28.47;41.04
41078;BME280;26823;42.662;23.352;2023-07-24T09:09:14;94960.06;;;28.52;41.00
41078;BME280;26823;42.662;23.352;2023-07-24T09:11:51;94956.53;;;28.66;41.48
41078;BME280;26823;42.662;23.352;2023-07-24T09:14:27;94955.34;;;28.63;40.46
41078;BME280;26823;42.662;23.352;2023-07-24T09:17:05;94949.81;;;28.74;40.83
41078;BME280;26823;42.662;23.352;2023-07-24T09:19:31;94950.22;;;28.69;39.34
41078;BME280;26823;42.662;23.352;2023-07-24T09:22:10;94953.03;;;28.79;39.33
41078;BME280;26823;42.662;23.352;2023-07-24T09:24:37;94943.50;;;28.91;38.70
41078;BME280;26823;42.662;23.352;2023-07-24T09:27:05;94944.28;;;28.92;38.84
41078;BME280;26823;42.662;23.352;2023-07-24T09:29:33;94934.75;;;28.96;38.98
41078;BME280;26823;42.662;23.352;2023-07-24T09:31:59;94944.72;;;29.01;38.98
41078;BME280;26823;42.662;23.352;2023-07-24T09:34:25;94928.84;;;29.12;39.70
41078;BME280;26823;42.662;23.352;2023-07-24T09:36:51;94921.66;;;29.26;39.16
41078;BME280;26823;42.662;23.352;2023-07-24T09:39:23;94918.91;;;29.33;38.16
41078;BME280;26823;42.662;23.352;2023-07-24T09:41:48;94914.16;;;29.44;38.63
41078;BME280;26823;42.662;23.352;2023-07-24T09:44:15;94907.75;;;29.51;38.39
41078;BME280;26823;42.662;23.352;2023-07-24T09:46:42;94904.56;;;29.64;38.38
41078;BME280;26823;42.662;23.352;2023-07-24T09:49:08;94874.34;;;29.55;38.32
41078;BME280;26823;42.662;23.352;2023-07-24T09:51:34;94891.81;;;29.73;37.47
41078;BME280;26823;42.662;23.352;2023-07-24T09:54:04;94893.44;;;29.64;36.33
41078;BME280;26823;42.662;23.352;2023-07-24T09:56:32;94892.22;;;29.68;36.76
41078;BME280;26823;42.662;23.352;2023-07-24T09:58:58;94883.47;;;29.66;35.36
41078;BME280;26823;42.662;23.352;2023-07-24T10:01:25;94890.25;;;29.58;36.84
41078;BME280;26823;42.662;23.352;2023-07-24T10:03:53;94896.22;;;29.67;36.87
41078;BME280;26823;42.662;23.352;2023-07-24T10:06:19;94881.88;;;29.76;36.41
41078;BME280;26823;42.662;23.352;2023-07-24T10:08:46;94883.44;;;29.81;37.04
41078;BME280;26823;42.662;23.352;2023-07-24T10:11:13;94872.69;;;29.86;37.28
41078;BME280;26823;42.662;23.352;2023-07-24T10:13:40;94873.47;;;29.94;37.17
41078;BME280;26823;42.662;23.352;2023-07-24T10:16:06;94873.84;;;30.03;36.01
41078;BME280;26823;42.662;23.352;2023-07-24T10:18:40;94867.06;;;30.01;34.89
41078;BME280;26823;42.662;23.352;2023-07-24T10:21:08;94866.28;;;30.07;35.65
41078;BME280;26823;42.662;23.352;2023-07-24T10:23:35;94865.84;;;30.16;35.71
41078;BME280;26823;42.662;23.352;2023-07-24T10:26:04;94850.66;;;30.21;34.57
41078;BME280;26823;42.662;23.352;2023-07-24T10:28:35;94859.78;;;30.32;35.31
41078;BME280;26823;42.662;23.352;2023-07-24T10:31:21;94845.41;;;30.37;35.70
41078;BME280;26823;42.662;23.352;2023-07-24T10:33:47;94845.81;;;30.36;34.99
41078;BME280;26823;42.662;23.352;2023-07-24T10:36:17;94833.44;;;30.40;34.05
41078;BME280;26823;42.662;23.352;2023-07-24T10:38:44;94844.16;;;30.53;34.72
41078;BME280;26823;42.662;23.352;2023-07-24T10:41:16;94848.09;;;30.63;35.07
41078;BME280;26823;42.662;23.352;2023-07-24T10:43:43;94852.00;;;30.72;34.50
41078;BME280;26823;42.662;23.352;2023-07-24T10:46:11;94842.47;;;30.70;34.55
41078;BME280;26823;42.662;23.352;2023-07-24T10:48:38;94844.03;;;30.74;34.40
41078;BME280;26823;42.662;23.352;2023-07-24T10:51:08;94848.44;;;30.72;34.00
41078;BME280;26823;42.662;23.352;2023-07-24T10:53:35;94846.78;;;30.78;33.75
41078;BME280;26823;42.662;23.352;2023-07-24T10:56:02;94824.22;;;30.58;34.15
41078;BME280;26823;42.662;23.352;2023-07-24T10:58:27;94839.28;;;30.64;34.50
41078;BME280;26823;42.662;23.352;2023-07-24T11:00:53;94821.44;;;30.54;34.58
41078;BME280;26823;42.662;23.352;2023-07-24T11:03:19;94819.38;;;30.66;35.34
41078;BME280;26823;42.662;23.352;2023-07-24T11:05:46;94818.94;;;30.71;35.22
41078;BME280;26823;42.662;23.352;2023-07-24T11:08:16;94829.69;;;30.69;35.72
41078;BME280;26823;42.662;23.352;2023-07-24T11:13:18;94816.16;;;30.67;35.65
41078;BME280;26823;42.662;23.352;2023-07-24T11:15:45;94816.16;;;30.67;34.55
41078;BME280;26823;42.662;23.352;2023-07-24T11:18:11;94806.16;;;30.73;33.92
41078;BME280;26823;42.662;23.352;2023-07-24T11:20:49;94799.41;;;30.67;34.15
41078;BME280;26823;42.662;23.352;2023-07-24T11:23:15;94797.53;;;30.50;33.72
41078;BME280;26823;42.662;23.352;2023-07-24T11:25:41;94793.53;;;30.58;33.83
41078;BME280;26823;42.662;23.352;2023-07-24T11:28:07;94815.31;;;30.74;33.92
41078;BME280;26823;42.662;23.352;2023-07-24T11:30:34;94802.09;;;30.82;33.45
41078;BME280;26823;42.662;23.352;2023-07-24T11:33:02;94796.16;;;30.80;33.39
41078;BME280;26823;42.662;23.352;2023-07-24T11:35:28;94791.75;;;30.82;33.15
41078;BME280;26823;42.662;23.352;2023-07-24T11:37:53;94788.22;;;30.74;34.08
41078;BME280;26823;42.662;23.352;2023-07-24T11:40:19;94783.00;;;30.77;32.77
41078;BME280;26823;42.662;23.352;2023-07-24T11:42:47;94788.59;;;30.77;32.80
41078;BME280;26823;42.662;23.352;2023-07-24T11:45:13;94786.16;;;30.82;33.64
41078;BME280;26823;42.662;23.352;2023-07-24T11:50:08;94772.66;;;30.73;33.92
41078;BME280;26823;42.662;23.352;2023-07-24T11:52:43;94771.03;;;30.80;33.80
41078;BME280;26823;42.662;23.352;2023-07-24T11:55:14;94778.53;;;30.86;33.77
41078;BME280;26823;42.662;23.352;2023-07-24T11:57:40;94780.88;;;30.95;34.06
41078;BME280;26823;42.662;23.352;2023-07-24T12:00:16;94766.50;;;30.93;34.11
41078;BME280;26823;42.662;23.352;2023-07-24T12:02:42;94772.09;;;30.93;34.43
41078;BME280;26823;42.662;23.352;2023-07-24T12:05:10;94756.22;;;30.86;34.35
41078;BME280;26823;42.662;23.352;2023-07-24T12:07:35;94761.44;;;30.81;34.10
41078;BME280;26823;42.662;23.352;2023-07-24T12:10:02;94761.44;;;30.81;34.56
41078;BME280;26823;42.662;23.352;2023-07-24T12:12:44;94772.28;;;30.71;35.15
41078;BME280;26823;42.662;23.352;2023-07-24T12:15:11;94763.50;;;30.69;35.53
41078;BME280;26823;42.662;23.352;2023-07-24T12:17:36;94763.47;;;30.77;35.44
41078;BME280;26823;42.662;23.352;2023-07-24T12:20:03;94750.69;;;30.75;36.60
41078;BME280;26823;42.662;23.352;2023-07-24T12:22:31;94756.25;;;30.79;35.59
41078;BME280;26823;42.662;23.352;2023-07-24T12:24:56;94762.09;;;30.96;34.94
41078;BME280;26823;42.662;23.352;2023-07-24T12:27:21;94765.72;;;30.96;35.02
41078;BME280;26823;42.662;23.352;2023-07-24T12:29:47;94760.19;;;30.85;35.27
41078;BME280;26823;42.662;23.352;2023-07-24T12:32:12;94753.47;;;30.79;35.51
41078;BME280;26823;42.662;23.352;2023-07-24T12:34:38;94757.00;;;30.87;35.46
41078;BME280;26823;42.662;23.352;2023-07-24T12:37:03;94750.25;;;30.81;35.59
41078;BME280;26823;42.662;23.352;2023-07-24T12:39:29;94754.66;;;30.78;35.81
41078;BME280;26823;42.662;23.352;2023-07-24T12:41:54;94732.41;;;30.74;34.99
41078;BME280;26823;42.662;23.352;2023-07-24T12:44:20;94738.25;;;30.87;34.64
41078;BME280;26823;42.662;23.352;2023-07-24T12:46:45;94740.63;;;30.89;35.45
41078;BME280;26823;42.662;23.352;2023-07-24T12:49:10;94738.56;;;30.97;34.93
41078;BME280;26823;42.662;23.352;2023-07-24T12:51:36;94704.19;;;31.07;34.16
41078;BME280;26823;42.662;23.352;2023-07-24T12:54:01;94733.06;;;31.31;33.94
41078;BME280;26823;42.662;23.352;2023-07-24T12:56:27;94726.66;;;31.34;34.14
41078;BME280;26823;42.662;23.352;2023-07-24T12:58:52;94731.41;;;31.37;33.69